M I D A S
Marine Information and Data Acquisition System
Tripno 859 of the Zeeleeuw from 2005-03-09 07:26:14 to 2005-03-09 16:05:02
Back to CruiseResearch ActivitiesStationsMapUnderway DataData graphs

EquipmentUnitsComment
TimeDGPSUTC
LatitudeDGPSDM.mWGS84
LongitudeDGPSDM.mWGS84
HeadingGyrodeg 
SOGDGPSknotsSpeed over ground
COGDGPSdegCourse over ground
DepthEcho soundermeters200 kHz
Missing or incorrect values are displayed as -999
Navigation data collected by the RV Zeeleeuw from 2005-03-09 07:26:29 to 2005-03-09 16:16:56
                                                                                    Next 1000 lines
Time Latitude Longitude Heading SOG COG Depth
2005-03-09 07:26:38 51°13.596 2°56.098 116.2 1.1 292 6.4
2005-03-09 07:26:44 51°13.597 2°56.094 116.6 1.9 296 6.4
2005-03-09 07:26:50 51°13.599 2°56.088 116.8 1.9 296 -999
2005-03-09 07:26:55 51°13.6 2°56.082 117.2 2.5 296 -999
2005-03-09 07:27:00 51°13.602 2°56.076 117.4 2.5 296 -999
2005-03-09 07:27:04 51°13.604 2°56.071 117.6 2.5 296 -999
2005-03-09 07:27:10 51°13.606 2°56.064 118.3 2.5 296 -999
2005-03-09 07:27:14 51°13.608 2°56.057 119 3.4 296 -999
2005-03-09 07:27:19 51°13.61 2°56.05 119.3 3.5 296 -999
2005-03-09 07:27:25 51°13.613 2°56.041 119.4 3.7 296 -999
2005-03-09 07:27:30 51°13.615 2°56.034 119.6 3.9 296 -999
2005-03-09 07:27:34 51°13.617 2°56.027 120 3.9 296 -999
2005-03-09 07:27:40 51°13.62 2°56.018 120.4 4 296 -999
2005-03-09 07:27:44 51°13.622 2°56.011 121.1 4 296 -999
2005-03-09 07:27:50 51°13.625 2°56.002 121.5 4.1 297 -999
2005-03-09 07:27:54 51°13.627 2°55.995 122.4 4.1 297 -999
2005-03-09 07:28:00 51°13.63 2°55.986 123.1 4.1 298 -999
2005-03-09 07:28:04 51°13.633 2°55.978 123.9 4.1 298 -999
2005-03-09 07:28:10 51°13.636 2°55.969 124.7 4.1 298 -999
2005-03-09 07:28:14 51°13.639 2°55.962 125.8 4.3 301 -999
2005-03-09 07:28:20 51°13.642 2°55.953 126.7 4.3 301 -999
2005-03-09 07:28:24 51°13.645 2°55.946 127.4 4.3 304 -999
2005-03-09 07:28:29 51°13.648 2°55.938 128.4 4.3 304 -999
2005-03-09 07:28:34 51°13.652 2°55.93 129.7 4.5 307 -999
2005-03-09 07:28:40 51°13.656 2°55.921 130.8 4.5 307 -999
2005-03-09 07:28:45 51°13.661 2°55.913 131.5 4.5 307 -999
2005-03-09 07:28:50 51°13.665 2°55.905 132.1 4.7 309 -999
2005-03-09 07:28:54 51°13.669 2°55.898 132.5 4.7 309 -999
2005-03-09 07:29:00 51°13.673 2°55.889 132.5 4.7 309 -999
2005-03-09 07:29:04 51°13.677 2°55.882 132.1 4.7 309 -999
2005-03-09 07:29:10 51°13.682 2°55.872 131.5 4.9 310 -999
2005-03-09 07:29:14 51°13.686 2°55.864 130.7 4.9 310 -999
2005-03-09 07:29:19 51°13.69 2°55.856 129.8 4.8 309 -999
2005-03-09 07:29:24 51°13.693 2°55.848 128.8 4.8 307 -999
2005-03-09 07:29:30 51°13.698 2°55.839 127.7 4.6 307 -999
2005-03-09 07:29:34 51°13.701 2°55.832 126.4 4.5 306 -999
2005-03-09 07:29:40 51°13.704 2°55.823 125.3 4.3 304 -999
2005-03-09 07:29:44 51°13.707 2°55.815 123.7 4.3 302 -999
2005-03-09 07:29:50 51°13.71 2°55.806 121.9 4.4 301 -999
2005-03-09 07:29:54 51°13.713 2°55.798 120.9 4.5 299 -999
2005-03-09 07:30:00 51°13.716 2°55.788 119.4 4.5 299 -999
2005-03-09 07:30:05 51°13.719 2°55.779 117.9 4.5 299 -999
2005-03-09 07:30:10 51°13.722 2°55.77 116 4.5 295 -999
2005-03-09 07:30:15 51°13.724 2°55.761 114.7 4.5 295 -999
2005-03-09 07:30:20 51°13.727 2°55.752 113.6 4.5 293 -999
2005-03-09 07:30:24 51°13.729 2°55.744 112.2 4.5 293 -999
2005-03-09 07:30:30 51°13.731 2°55.734 110.4 4.4 291 -999
2005-03-09 07:30:35 51°13.733 2°55.724 108.3 4.4 291 -999
2005-03-09 07:30:40 51°13.734 2°55.715 106.6 4.1 285 -999
2005-03-09 07:30:44 51°13.735 2°55.709 104.3 3.8 285 -999
2005-03-09 07:30:50 51°13.736 2°55.702 102.3 3.8 285 -999
2005-03-09 07:30:54 51°13.737 2°55.699 100 2 282 9.7
2005-03-09 07:30:58 51°13.737 2°55.698 97 0.6 301 9.7
2005-03-09 07:31:04 51°13.737 2°55.7 91.7 0.6 301 9.7
2005-03-09 07:31:09 51°13.738 2°55.704 84 1.3 67 10.2
2005-03-09 07:31:14 51°13.74 2°55.708 75 2 68 -999
2005-03-09 07:31:19 51°13.741 2°55.712 66.3 2.1 57 5.1
2005-03-09 07:31:24 51°13.742 2°55.714 61.2 2.1 57 9.2
2005-03-09 07:31:28 51°13.742 2°55.715 57.8 0.8 51 9.1
2005-03-09 07:31:34 51°13.742 2°55.715 53.8 0.8 51 9.6
2005-03-09 07:31:39 51°13.742 2°55.714 50.7 0.8 51 9.1
2005-03-09 07:31:44 51°13.74 2°55.713 48.2 0.8 51 9.2
2005-03-09 07:31:49 51°13.738 2°55.71 46.7 0.8 51 9.3
2005-03-09 07:31:54 51°13.736 2°55.707 45.7 2 221 4.9
2005-03-09 07:32:00 51°13.734 2°55.703 45.2 2 220 -999
2005-03-09 07:32:04 51°13.732 2°55.701 45.1 1.9 221 -999
2005-03-09 07:32:10 51°13.731 2°55.7 45.1 1.9 221 -999
2005-03-09 07:32:15 51°13.732 2°55.7 42.5 1.9 221 -999
2005-03-09 07:32:20 51°13.734 2°55.701 37.1 1.9 221 -999
2005-03-09 07:32:24 51°13.736 2°55.702 32 1.9 221 5.1
2005-03-09 07:32:30 51°13.741 2°55.703 23.7 1.9 221 -999
2005-03-09 07:32:34 51°13.746 2°55.703 14.1 3.3 6 5
2005-03-09 07:32:40 51°13.753 2°55.7 3.6 4.2 352 5
2005-03-09 07:32:44 51°13.758 2°55.697 352.5 4.8 345 9.1
2005-03-09 07:32:49 51°13.764 2°55.692 343 5 338 9.3
2005-03-09 07:32:54 51°13.77 2°55.687 338 4.8 333 9.3
2005-03-09 07:32:59 51°13.776 2°55.682 336 5 332 9.3
2005-03-09 07:33:04 51°13.783 2°55.676 335 5 332 9.3
2005-03-09 07:33:09 51°13.791 2°55.669 334.9 5 332 9.4
2005-03-09 07:33:14 51°13.798 2°55.663 335.1 6 331 9.4
2005-03-09 07:33:19 51°13.805 2°55.657 335.8 6.3 333 9.4
2005-03-09 07:33:24 51°13.814 2°55.65 336.6 6.4 333 9.4
2005-03-09 07:33:29 51°13.821 2°55.644 337.5 6.6 334 9.6
2005-03-09 07:33:34 51°13.83 2°55.637 338.4 6.6 334 9.5
2005-03-09 07:33:39 51°13.84 2°55.63 338.4 6.9 335 9.7
2005-03-09 07:33:44 51°13.848 2°55.624 338.5 7.2 335 9.4
2005-03-09 07:33:48 51°13.856 2°55.619 339 7.2 336 9.1
2005-03-09 07:33:54 51°13.868 2°55.61 339.6 7.2 336 9.2
2005-03-09 07:33:59 51°13.876 2°55.604 339.9 7.5 336 9.3
2005-03-09 07:34:04 51°13.887 2°55.597 339.9 7.5 336 9.4
2005-03-09 07:34:09 51°13.896 2°55.59 339.4 7.6 336 9.7
2005-03-09 07:34:14 51°13.905 2°55.583 339.2 7.7 335 9.4
2005-03-09 07:34:19 51°13.915 2°55.576 339.2 7.8 335 9.4
2005-03-09 07:34:24 51°13.925 2°55.568 339.2 7.9 334 9.2
2005-03-09 07:34:29 51°13.936 2°55.56 339.4 8.1 336 9.1
2005-03-09 07:34:34 51°13.946 2°55.553 339.9 8.1 336 9.4
2005-03-09 07:34:39 51°13.957 2°55.545 339.9 8.1 336 9
2005-03-09 07:34:44 51°13.967 2°55.538 339.9 8.4 336 9.7
2005-03-09 07:34:50 51°13.98 2°55.529 340.5 8.5 337 -999
2005-03-09 07:34:55 51°13.992 2°55.521 341.8 8.6 338 9
2005-03-09 07:35:00 51°14.002 2°55.514 341.4 8.6 338 9
2005-03-09 07:35:04 51°14.011 2°55.508 340.5 8.7 336 -999
2005-03-09 07:35:09 51°14.023 2°55.499 340 8.7 336 9.5
2005-03-09 07:35:14 51°14.034 2°55.491 339.6 8.7 335 9.2
2005-03-09 07:35:19 51°14.045 2°55.483 339.3 8.7 335 8.8
2005-03-09 07:35:24 51°14.054 2°55.476 338.9 8.7 335 8.9
2005-03-09 07:35:28 51°14.063 2°55.47 339 8.7 335 8.9
2005-03-09 07:35:34 51°14.076 2°55.46 338.9 8.7 335 8.8
2005-03-09 07:35:38 51°14.086 2°55.452 338.5 8.7 334 9.1
2005-03-09 07:35:44 51°14.098 2°55.442 337.8 8.8 333 9
2005-03-09 07:35:48 51°14.107 2°55.435 337.8 8.8 334 9.1
2005-03-09 07:35:54 51°14.12 2°55.424 337.8 8.8 334 9.2
2005-03-09 07:35:58 51°14.13 2°55.416 337.4 9.2 333 9.1
2005-03-09 07:36:04 51°14.143 2°55.405 336.5 9.4 332 9.3
2005-03-09 07:36:09 51°14.156 2°55.393 335.3 9.5 331 9.2
2005-03-09 07:36:14 51°14.167 2°55.381 333.3 9.5 331 -999
2005-03-09 07:36:20 51°14.18 2°55.368 331.8 9.8 328 -999
2005-03-09 07:36:24 51°14.189 2°55.357 329.8 9.8 328 -999
2005-03-09 07:36:30 51°14.202 2°55.341 328.3 10 324 -999
2005-03-09 07:36:34 51°14.212 2°55.328 326.7 10.1 323 9.7
2005-03-09 07:36:39 51°14.223 2°55.313 325.1 10.2 321 9
2005-03-09 07:36:44 51°14.232 2°55.299 323.4 10.3 318 9.1
2005-03-09 07:36:50 51°14.245 2°55.28 322.1 10.4 318 9.1
2005-03-09 07:36:54 51°14.254 2°55.265 320.1 10.4 318 9
2005-03-09 07:36:59 51°14.264 2°55.248 318.8 10.5 314 9.1
2005-03-09 07:37:04 51°14.273 2°55.233 318.6 10.5 314 9.9
2005-03-09 07:37:08 51°14.281 2°55.219 318.1 10.6 313 9.8
2005-03-09 07:37:14 51°14.294 2°55.196 317.2 10.6 312 9.1
2005-03-09 07:37:18 51°14.301 2°55.182 316.4 10.8 312 9
2005-03-09 07:37:24 51°14.312 2°55.162 315.5 10.8 311 9.1
2005-03-09 07:37:29 51°14.322 2°55.143 314.8 11 311 9
2005-03-09 07:37:34 51°14.332 2°55.125 314.6 11.1 311 8.9
2005-03-09 07:37:38 51°14.342 2°55.108 314.8 11.3 310 9.2
2005-03-09 07:37:44 51°14.352 2°55.086 314.6 11.3 310 9.2
2005-03-09 07:37:48 51°14.361 2°55.07 314.2 11.4 309 9.2
2005-03-09 07:37:54 51°14.372 2°55.047 313.7 11.4 309 9.1
2005-03-09 07:37:59 51°14.384 2°55.025 314.4 11.5 310 9.2
2005-03-09 07:38:04 51°14.396 2°55.005 316.1 11.9 313 9.2
2005-03-09 07:38:09 51°14.408 2°54.987 318.6 11.9 313 9.1
2005-03-09 07:38:14 51°14.419 2°54.97 320.8 12.3 316 9.2
2005-03-09 07:38:20 51°14.434 2°54.947 322.2 12.5 316 9.3
2005-03-09 07:38:24 51°14.444 2°54.932 323.4 12.5 316 9.2
2005-03-09 07:38:29 51°14.458 2°54.912 324.1 12.5 316 9.2
2005-03-09 07:38:34 51°14.47 2°54.894 324.6 12.9 318 9.2
2005-03-09 07:38:39 51°14.485 2°54.873 325.8 12.8 319 9.2
2005-03-09 07:38:44 51°14.497 2°54.856 326.3 12.8 318 9.1
2005-03-09 07:38:49 51°14.511 2°54.834 326.1 12.8 317 9.5
2005-03-09 07:38:54 51°14.524 2°54.815 325.6 12.9 317 9.2
2005-03-09 07:38:59 51°14.537 2°54.795 325.2 12.9 317 9.1
2005-03-09 07:39:04 51°14.549 2°54.777 325 12.9 317 9.2
2005-03-09 07:39:08 51°14.559 2°54.761 324.9 13 316 9.2
2005-03-09 07:39:14 51°14.575 2°54.737 325.1 13 316 9.3
2005-03-09 07:39:19 51°14.589 2°54.715 325.1 13 315 9.2
2005-03-09 07:39:24 51°14.6 2°54.696 325 13 315 9.2
2005-03-09 07:39:28 51°14.612 2°54.678 325.2 13 315 9
2005-03-09 07:39:34 51°14.627 2°54.655 325.3 13 316 8.9
2005-03-09 07:39:39 51°14.641 2°54.635 325.7 13 317 8.9
2005-03-09 07:39:44 51°14.654 2°54.618 326.9 13 319 9
2005-03-09 07:39:49 51°14.668 2°54.598 327.4 12.9 318 9
2005-03-09 07:39:54 51°14.682 2°54.579 327.4 12.9 318 9
2005-03-09 07:39:59 51°14.694 2°54.562 327.2 12.9 319 9
2005-03-09 07:40:04 51°14.709 2°54.542 326.9 13 319 9.1
2005-03-09 07:40:09 51°14.723 2°54.524 328 12.9 321 8.8
2005-03-09 07:40:14 51°14.737 2°54.506 329.1 12.9 321 9.2
2005-03-09 07:40:18 51°14.748 2°54.492 330.2 13 323 9.1
2005-03-09 07:40:24 51°14.764 2°54.474 331.5 12.9 324 9.1
2005-03-09 07:40:29 51°14.779 2°54.456 331.8 12.9 324 9.1
2005-03-09 07:40:34 51°14.793 2°54.44 331.9 12.8 324 8.9
2005-03-09 07:40:39 51°14.807 2°54.422 332 12.8 324 9
2005-03-09 07:40:44 51°14.822 2°54.406 332.1 12.9 324 9
2005-03-09 07:40:49 51°14.836 2°54.389 332.1 12.9 324 9
2005-03-09 07:40:54 51°14.852 2°54.371 332 12.9 324 8.9
2005-03-09 07:40:58 51°14.863 2°54.357 331.9 12.9 324 8.9
2005-03-09 07:41:04 51°14.878 2°54.339 331.6 12.9 323 8.7
2005-03-09 07:41:08 51°14.889 2°54.325 331 12.8 322 8.5
2005-03-09 07:41:14 51°14.908 2°54.302 330.7 12.8 322 8.4
2005-03-09 07:41:20 51°14.923 2°54.283 330.9 12.8 322 8.3
2005-03-09 07:41:24 51°14.934 2°54.269 331 12.7 322 8.2
2005-03-09 07:41:30 51°14.951 2°54.249 331.1 12.7 322 8.2
2005-03-09 07:41:34 51°14.964 2°54.233 331 12.7 322 8.1
2005-03-09 07:41:39 51°14.978 2°54.216 331.2 12.7 323 8.1
2005-03-09 07:41:44 51°14.991 2°54.201 331.6 12.7 323 8.1
2005-03-09 07:41:49 51°15.004 2°54.184 331.9 12.7 323 8.1
2005-03-09 07:41:54 51°15.019 2°54.165 331.8 12.7 322 8.1
2005-03-09 07:41:58 51°15.03 2°54.151 331.7 12.7 323 8.1
2005-03-09 07:42:04 51°15.048 2°54.131 332 12.7 324 8.1
2005-03-09 07:42:09 51°15.062 2°54.115 332.7 12.7 324 8.2
2005-03-09 07:42:14 51°15.075 2°54.099 332.9 12.7 324 8.3
2005-03-09 07:42:18 51°15.088 2°54.085 333.1 12.8 324 8.3
2005-03-09 07:42:24 51°15.104 2°54.066 332.6 12.8 324 8.4
2005-03-09 07:42:29 51°15.12 2°54.05 333.5 12.8 326 8.4
2005-03-09 07:42:34 51°15.134 2°54.037 336.2 12.8 329 8.4
2005-03-09 07:42:38 51°15.147 2°54.026 338.6 12.7 330 8.5
2005-03-09 07:42:44 51°15.165 2°54.011 341.1 12.7 332 8.5
2005-03-09 07:42:50 51°15.184 2°53.997 342.7 12.7 332 8.5
2005-03-09 07:42:54 51°15.199 2°53.987 343.9 12.7 335 8.6
2005-03-09 07:42:59 51°15.214 2°53.977 345.3 12.6 337 8.7
2005-03-09 07:43:04 51°15.229 2°53.966 346.3 12.6 337 8.7
2005-03-09 07:43:08 51°15.242 2°53.957 346.8 12.7 336 8.7
2005-03-09 07:43:14 51°15.263 2°53.94 346 12.7 336 8.8
2005-03-09 07:43:19 51°15.278 2°53.927 344.1 12.8 333 8.8
2005-03-09 07:43:24 51°15.292 2°53.915 342.6 12.8 333 8.9
2005-03-09 07:43:28 51°15.306 2°53.902 341.9 12.8 330 9.1
2005-03-09 07:43:34 51°15.325 2°53.886 341 12.8 330 9
2005-03-09 07:43:38 51°15.337 2°53.874 340.9 12.8 330 9
2005-03-09 07:43:44 51°15.354 2°53.859 340.9 12.9 330 9.2
2005-03-09 07:43:48 51°15.366 2°53.848 341.3 12.9 330 9.3
2005-03-09 07:43:54 51°15.386 2°53.83 341.4 12.8 331 9.3
2005-03-09 07:43:59 51°15.401 2°53.817 341.4 12.8 331 9.3
2005-03-09 07:44:04 51°15.416 2°53.804 341.7 12.8 331 9.3
2005-03-09 07:44:08 51°15.428 2°53.793 342 12.8 332 9.5
2005-03-09 07:44:14 51°15.448 2°53.775 342.1 12.8 332 9.5
2005-03-09 07:44:18 51°15.46 2°53.763 341.7 12.8 330 9.5
2005-03-09 07:44:24 51°15.477 2°53.748 341.1 12.7 329 9.6
2005-03-09 07:44:29 51°15.494 2°53.732 341.1 12.7 329 9.6
2005-03-09 07:44:34 51°15.509 2°53.718 340.9 12.7 329 9.6
2005-03-09 07:44:38 51°15.522 2°53.706 341.2 12.8 329 9.8
2005-03-09 07:44:44 51°15.54 2°53.69 341.3 12.7 330 9.9
2005-03-09 07:44:49 51°15.555 2°53.675 341.7 12.6 330 9.8
2005-03-09 07:44:54 51°15.569 2°53.663 341.7 12.6 330 9.9
2005-03-09 07:44:59 51°15.584 2°53.648 341.5 12.7 329 10.1
2005-03-09 07:45:04 51°15.599 2°53.634 341.3 12.7 330 10.1
2005-03-09 07:45:09 51°15.614 2°53.62 341.4 12.7 330 10
2005-03-09 07:45:14 51°15.631 2°53.605 341.7 12.7 330 10.2
2005-03-09 07:45:19 51°15.647 2°53.592 341.8 12.6 331 10.4
2005-03-09 07:45:23 51°15.659 2°53.581 342.4 12.6 331 10.5
2005-03-09 07:45:29 51°15.677 2°53.565 342.6 12.6 332 10.3
2005-03-09 07:45:34 51°15.692 2°53.552 342.5 12.6 332 10.4
2005-03-09 07:45:39 51°15.708 2°53.538 342.3 12.6 332 10.4
2005-03-09 07:45:44 51°15.721 2°53.526 341.9 12.6 332 10.4
2005-03-09 07:45:48 51°15.733 2°53.515 341.9 12.5 331 10.4
2005-03-09 07:45:54 51°15.753 2°53.499 342 12.5 331 10.6
2005-03-09 07:45:59 51°15.768 2°53.485 342.2 12.5 332 10.6
2005-03-09 07:46:04 51°15.782 2°53.474 342.2 12.5 331 10.6
2005-03-09 07:46:09 51°15.799 2°53.459 341.8 12.5 332 10.7
2005-03-09 07:46:14 51°15.814 2°53.446 341.6 12.5 332 10.6
2005-03-09 07:46:18 51°15.826 2°53.435 341.5 12.5 331 10.6
2005-03-09 07:46:24 51°15.843 2°53.42 341.2 12.4 331 10.7
2005-03-09 07:46:28 51°15.855 2°53.409 341.2 12.4 331 10.7
2005-03-09 07:46:34 51°15.874 2°53.392 341 12.4 331 10.8
2005-03-09 07:46:39 51°15.889 2°53.379 340.9 12.4 331 10.8
2005-03-09 07:46:44 51°15.905 2°53.366 341.2 12.4 332 10.9
2005-03-09 07:46:49 51°15.918 2°53.355 341.6 12.4 331 10.9
2005-03-09 07:46:54 51°15.933 2°53.341 341.6 12.5 331 10.9
2005-03-09 07:46:59 51°15.95 2°53.327 341.3 12.4 331 11
2005-03-09 07:47:04 51°15.965 2°53.313 341.2 12.4 331 11
2005-03-09 07:47:08 51°15.976 2°53.305 341.3 12.5 332 11
2005-03-09 07:47:14 51°15.994 2°53.289 341.4 12.5 332 11.1
2005-03-09 07:47:18 51°16.008 2°53.277 341.7 12.4 332 11.2
2005-03-09 07:47:24 51°16.025 2°53.263 341.7 12.5 332 11.1
2005-03-09 07:47:28 51°16.037 2°53.253 341.4 12.5 331 11.1
2005-03-09 07:47:34 51°16.056 2°53.236 341.1 12.4 331 11.1
2005-03-09 07:47:39 51°16.07 2°53.223 341 12.5 331 11.2
2005-03-09 07:47:44 51°16.086 2°53.21 340.9 12.5 331 11.3
2005-03-09 07:47:48 51°16.098 2°53.199 341.1 12.4 332 11.3
2005-03-09 07:47:54 51°16.115 2°53.185 341.6 12.3 333 11.2
2005-03-09 07:47:59 51°16.132 2°53.172 341.7 12.2 333 11.4
2005-03-09 07:48:04 51°16.146 2°53.16 342 12.3 333 11.3
2005-03-09 07:48:09 51°16.163 2°53.146 342 12.3 333 11.3
2005-03-09 07:48:14 51°16.178 2°53.134 342.3 12.3 333 11.4
2005-03-09 07:48:19 51°16.192 2°53.122 341.9 12.3 332 11.3
2005-03-09 07:48:24 51°16.207 2°53.109 341.7 12.5 333 11.5
2005-03-09 07:48:28 51°16.219 2°53.099 341.7 12.3 332 11.4
2005-03-09 07:48:34 51°16.237 2°53.085 341.6 12.3 333 11.3
2005-03-09 07:48:39 51°16.254 2°53.07 341.5 12.3 333 11.4
2005-03-09 07:48:44 51°16.268 2°53.059 341.6 12.3 333 11.4
2005-03-09 07:48:49 51°16.282 2°53.047 341.7 12.3 333 11.2
2005-03-09 07:48:54 51°16.298 2°53.034 341.4 12.3 333 11.3
2005-03-09 07:48:58 51°16.312 2°53.022 341.1 12.4 332 11.3
2005-03-09 07:49:04 51°16.329 2°53.008 341 12.4 333 11.4
2005-03-09 07:49:08 51°16.341 2°52.998 341 12.4 333 11.5
2005-03-09 07:49:14 51°16.359 2°52.982 341 12.4 332 11.4
2005-03-09 07:49:19 51°16.374 2°52.97 340.8 12.3 333 11.4
2005-03-09 07:49:24 51°16.389 2°52.957 341.1 12.3 333 11.4
2005-03-09 07:49:29 51°16.405 2°52.944 341.6 12.4 333 11.6
2005-03-09 07:49:34 51°16.422 2°52.931 341.8 12.4 333 11.7
2005-03-09 07:49:39 51°16.435 2°52.919 341.7 12.4 333 11.4
2005-03-09 07:49:44 51°16.451 2°52.907 341.5 12.4 333 11.4
2005-03-09 07:49:48 51°16.463 2°52.897 341.8 12.3 333 11.3
2005-03-09 07:49:54 51°16.483 2°52.88 341.5 12.3 333 11.3
2005-03-09 07:49:58 51°16.496 2°52.87 341.3 12.4 332 11.6
2005-03-09 07:50:04 51°16.512 2°52.857 341.2 12.4 332 11.3
2005-03-09 07:50:09 51°16.53 2°52.842 341.1 12.3 332 11.3
2005-03-09 07:50:14 51°16.543 2°52.83 341 12.3 332 11.2
2005-03-09 07:50:19 51°16.56 2°52.816 340.6 12.3 331 11.2
2005-03-09 07:50:24 51°16.574 2°52.804 340.5 12.3 331 11
2005-03-09 07:50:29 51°16.59 2°52.791 340.9 12.2 333 11
2005-03-09 07:50:34 51°16.605 2°52.778 341.1 12.2 333 10.9
2005-03-09 07:50:38 51°16.617 2°52.769 341.5 12.4 334 11
2005-03-09 07:50:44 51°16.634 2°52.755 341.9 12.3 334 11
2005-03-09 07:50:49 51°16.651 2°52.742 341.7 12.3 333 10.7
2005-03-09 07:50:54 51°16.666 2°52.728 341.5 12.4 332 10.6
2005-03-09 07:50:59 51°16.681 2°52.716 340.7 12.4 332 10.5
2005-03-09 07:51:04 51°16.695 2°52.705 340.8 12.4 332 10.3
2005-03-09 07:51:08 51°16.707 2°52.695 340.8 12.4 332 10.1
2005-03-09 07:51:14 51°16.726 2°52.678 340.7 12.3 331 10
2005-03-09 07:51:19 51°16.741 2°52.664 340.7 12.2 331 9.6
2005-03-09 07:51:24 51°16.755 2°52.653 340.4 12.1 331 9.2
2005-03-09 07:51:28 51°16.767 2°52.642 340.6 12.2 332 9.4
2005-03-09 07:51:34 51°16.786 2°52.627 341.2 11.9 333 9.3
2005-03-09 07:51:39 51°16.801 2°52.615 341.8 12 333 9.3
2005-03-09 07:51:44 51°16.815 2°52.603 342 12.1 334 9.4
2005-03-09 07:51:49 51°16.829 2°52.591 341.9 12.1 332 9.3
2005-03-09 07:51:54 51°16.844 2°52.578 341.3 12.3 332 9.2
2005-03-09 07:51:58 51°16.857 2°52.567 340.9 12.3 332 9.2
2005-03-09 07:52:03 51°16.872 2°52.554 340.9 12.2 332 9.3
2005-03-09 07:52:09 51°16.889 2°52.541 340.9 12.2 332 9.4
2005-03-09 07:52:14 51°16.904 2°52.527 341.2 12.2 332 9.6
2005-03-09 07:52:18 51°16.917 2°52.515 340.9 12.4 331 9.7
2005-03-09 07:52:25 51°16.937 2°52.498 341.2 12.4 331 9.4
2005-03-09 07:52:28 51°16.948 2°52.489 341.1 12.4 331 9.3
2005-03-09 07:52:34 51°16.965 2°52.473 340.8 12.4 330 9.2
2005-03-09 07:52:39 51°16.978 2°52.462 340.7 12.2 331 9.1
2005-03-09 07:52:44 51°16.993 2°52.449 340.9 12.2 331 9.1
2005-03-09 07:52:50 51°17.011 2°52.433 341.3 12.2 332 9.1
2005-03-09 07:52:54 51°17.023 2°52.423 341.8 12.2 331 9.3
2005-03-09 07:52:59 51°17.038 2°52.409 341.5 12.1 331 9.3
2005-03-09 07:53:04 51°17.052 2°52.397 341 12.3 331 9.3
2005-03-09 07:53:08 51°17.064 2°52.386 341.3 12.3 331 9.4
2005-03-09 07:53:14 51°17.083 2°52.37 341.4 12.3 331 9.5
2005-03-09 07:53:19 51°17.097 2°52.357 341.2 12.3 331 9.6
2005-03-09 07:53:24 51°17.112 2°52.344 341.4 12.3 331 9.5
2005-03-09 07:53:30 51°17.131 2°52.331 341.6 12.3 331 9.5
2005-03-09 07:53:34 51°17.146 2°52.323 344.5 12.1 339 9.6
2005-03-09 07:53:38 51°17.158 2°52.317 348.7 12 343 9.6
2005-03-09 07:53:44 51°17.176 2°52.31 352.9 11.9 346 9.7
2005-03-09 07:53:49 51°17.193 2°52.304 354.9 11.8 347 9.8
2005-03-09 07:53:54 51°17.208 2°52.299 356.6 11.8 347 9.7
2005-03-09 07:53:59 51°17.226 2°52.294 358 11.8 347 9.9
2005-03-09 07:54:04 51°17.24 2°52.291 358.7 11.8 351 9.9
2005-03-09 07:54:08 51°17.256 2°52.287 359.3 12 351 10
2005-03-09 07:54:14 51°17.273 2°52.282 359.6 11.9 352 10
2005-03-09 07:54:19 51°17.292 2°52.279 359.9 11.8 351 10.1
2005-03-09 07:54:24 51°17.308 2°52.278 2.6 11.8 356 10
2005-03-09 07:54:28 51°17.321 2°52.277 4.9 11.8 358 10
2005-03-09 07:54:34 51°17.338 2°52.278 6.6 11.8 358 9.9
2005-03-09 07:54:39 51°17.357 2°52.278 8.9 11.8 358 9.8
2005-03-09 07:54:44 51°17.372 2°52.28 9.4 11.8 358 10.1
2005-03-09 07:54:49 51°17.389 2°52.281 10.8 11.7 3 10
2005-03-09 07:54:54 51°17.406 2°52.283 10.8 11.7 3 9.8
2005-03-09 07:54:59 51°17.422 2°52.284 11.5 11.8 3 10
2005-03-09 07:55:04 51°17.436 2°52.285 11.2 11.8 3 10
2005-03-09 07:55:10 51°17.456 2°52.287 11.3 11.9 4 10.1
2005-03-09 07:55:14 51°17.471 2°52.288 11.3 11.9 4 10.1
2005-03-09 07:55:19 51°17.485 2°52.29 10.7 11.8 2 10
2005-03-09 07:55:24 51°17.501 2°52.29 10.9 11.8 2 10
2005-03-09 07:55:29 51°17.52 2°52.292 10.5 11.8 2 10
2005-03-09 07:55:34 51°17.536 2°52.293 10.5 11.8 2 9.9
2005-03-09 07:55:38 51°17.549 2°52.294 10.5 11.7 3 10
2005-03-09 07:55:43 51°17.565 2°52.296 11.5 11.6 4 9.9
2005-03-09 07:55:50 51°17.587 2°52.299 12.8 11.7 5 9.9
2005-03-09 07:55:54 51°17.601 2°52.302 13.2 11.7 5 9.9
2005-03-09 07:55:58 51°17.613 2°52.305 14.1 11.6 8 10
2005-03-09 07:56:04 51°17.631 2°52.308 14.9 11.7 7 10
2005-03-09 07:56:09 51°17.649 2°52.312 15.3 11.7 7 10
2005-03-09 07:56:14 51°17.664 2°52.315 15.7 11.7 7 10
2005-03-09 07:56:19 51°17.681 2°52.319 15.4 11.6 8 9.9
2005-03-09 07:56:23 51°17.694 2°52.32 15.2 11.6 8 9.9
2005-03-09 07:56:28 51°17.708 2°52.323 14.8 11.7 7 9.9
2005-03-09 07:56:34 51°17.729 2°52.327 14.5 11.7 7 10
2005-03-09 07:56:39 51°17.745 2°52.331 14.5 11.7 7 10
2005-03-09 07:56:44 51°17.76 2°52.332 14.9 11.7 7 10
2005-03-09 07:56:49 51°17.778 2°52.336 14.5 11.7 7 10
2005-03-09 07:56:54 51°17.794 2°52.339 14.5 11.7 7 9.9
2005-03-09 07:56:59 51°17.81 2°52.342 14.5 11.8 7 10
2005-03-09 07:57:04 51°17.824 2°52.346 14.4 11.8 7 9.9
2005-03-09 07:57:09 51°17.842 2°52.351 15.9 11.7 9 10
2005-03-09 07:57:14 51°17.859 2°52.356 17.5 11.7 9 9.9
2005-03-09 07:57:19 51°17.873 2°52.362 18.2 11.5 14 10.3
2005-03-09 07:57:24 51°17.887 2°52.368 19.7 11.5 14 9.9
2005-03-09 07:57:30 51°17.907 2°52.374 21.1 11.7 13 9.9
2005-03-09 07:57:34 51°17.921 2°52.38 20.3 11.8 13 10
2005-03-09 07:57:39 51°17.937 2°52.385 19.9 11.6 12 10.1
2005-03-09 07:57:44 51°17.951 2°52.391 19.9 11.6 12 10.1
2005-03-09 07:57:48 51°17.963 2°52.395 20.4 11.7 13 10.2
2005-03-09 07:57:54 51°17.983 2°52.402 20.3 11.8 14 10.2
2005-03-09 07:57:59 51°18 2°52.409 20.8 11.8 14 10.2
2005-03-09 07:58:04 51°18.014 2°52.414 20.6 11.8 13 10.3
2005-03-09 07:58:08 51°18.027 2°52.419 20.6 11.8 14 10.3
2005-03-09 07:58:14 51°18.048 2°52.427 21 11.8 14 10.2
2005-03-09 07:58:19 51°18.064 2°52.434 19.9 11.8 14 10.3
2005-03-09 07:58:24 51°18.077 2°52.442 22.7 11.8 14 10.2
2005-03-09 07:58:29 51°18.094 2°52.452 25.9 11.8 21 10.2
2005-03-09 07:58:33 51°18.106 2°52.461 27.8 11.6 24 10.3
2005-03-09 07:58:39 51°18.122 2°52.473 29.7 11.8 25 10.2
2005-03-09 07:58:44 51°18.136 2°52.487 32.8 11.7 30 10.3
2005-03-09 07:58:49 51°18.151 2°52.503 35.9 11.7 35 10.2
2005-03-09 07:58:53 51°18.161 2°52.516 39.1 11.7 37 10.3
2005-03-09 07:58:58 51°18.173 2°52.532 42.3 11.6 39 10.3
2005-03-09 07:59:04 51°18.187 2°52.551 43.5 11.6 40 10.4
2005-03-09 07:59:09 51°18.201 2°52.569 44.1 11.6 40 10.5
2005-03-09 07:59:14 51°18.213 2°52.586 44.2 11.6 40 10.4
2005-03-09 07:59:19 51°18.225 2°52.603 45.8 11.6 40 10.5
2005-03-09 07:59:24 51°18.236 2°52.619 46.1 12 40 10.4
2005-03-09 07:59:29 51°18.249 2°52.637 46.1 11.7 44 10.7
2005-03-09 07:59:34 51°18.26 2°52.658 47.1 11.7 44 10.6
2005-03-09 07:59:38 51°18.268 2°52.675 51.8 11.7 44 10.5
2005-03-09 07:59:43 51°18.277 2°52.697 56.5 11.8 54 10.5
2005-03-09 07:59:48 51°18.285 2°52.718 59.5 11.8 58 10.7
2005-03-09 07:59:54 51°18.294 2°52.744 60.7 11.8 59 10.4
2005-03-09 07:59:59 51°18.303 2°52.77 64.6 11.8 59 10.5
2005-03-09 08:00:04 51°18.309 2°52.792 64.6 11.8 59 10.6
2005-03-09 08:00:08 51°18.315 2°52.811 65.7 12 62 10.7
2005-03-09 08:00:14 51°18.326 2°52.841 65.2 12 62 10.7
2005-03-09 08:00:19 51°18.333 2°52.864 64.5 12 62 10.8
2005-03-09 08:00:24 51°18.34 2°52.885 64.3 12 61 10.7
2005-03-09 08:00:28 51°18.346 2°52.904 65.1 12 62 10.8
2005-03-09 08:00:34 51°18.356 2°52.933 65.2 12.1 63 10.9
2005-03-09 08:00:38 51°18.362 2°52.954 65.2 12 63 10.7
2005-03-09 08:00:44 51°18.37 2°52.98 66 12 63 10.7
2005-03-09 08:00:49 51°18.379 2°53.006 65.3 12 64 10.8
2005-03-09 08:00:54 51°18.385 2°53.028 64.8 12 64 10.6
2005-03-09 08:00:58 51°18.393 2°53.049 65.8 12 60 10.4
2005-03-09 08:01:04 51°18.402 2°53.074 63.7 12 60 10.6
2005-03-09 08:01:09 51°18.41 2°53.098 62.6 11.9 60 10.7
2005-03-09 08:01:14 51°18.418 2°53.121 63 12 60 10.6
2005-03-09 08:01:19 51°18.427 2°53.144 62.7 12 60 10.8
2005-03-09 08:01:24 51°18.434 2°53.167 61.9 11.9 63 10.6
2005-03-09 08:01:29 51°18.444 2°53.192 63.1 12 60 10.5
2005-03-09 08:01:34 51°18.451 2°53.212 62.7 12.1 60 10.5
2005-03-09 08:01:38 51°18.458 2°53.234 63.1 12 61 10.4
2005-03-09 08:01:44 51°18.467 2°53.259 62.4 12 59 10.6
2005-03-09 08:01:49 51°18.477 2°53.284 63 12.1 60 10.8
2005-03-09 08:01:54 51°18.486 2°53.307 61.6 12.1 60 11
2005-03-09 08:01:59 51°18.493 2°53.327 61.7 12.1 60 11
2005-03-09 08:02:04 51°18.502 2°53.35 62.1 12 60 11.2
2005-03-09 08:02:09 51°18.51 2°53.376 62.3 12 60 10.8
2005-03-09 08:02:14 51°18.517 2°53.397 62.8 11.9 60 10.7
2005-03-09 08:02:19 51°18.526 2°53.422 63.8 12.1 61 10.8
2005-03-09 08:02:24 51°18.534 2°53.443 62.9 12.1 61 10.8
2005-03-09 08:02:30 51°18.543 2°53.469 61.7 12.1 61 10.7
2005-03-09 08:02:34 51°18.55 2°53.491 63.1 11.8 62 10.6
2005-03-09 08:02:38 51°18.557 2°53.509 63.7 11.8 62 10.7
2005-03-09 08:02:44 51°18.566 2°53.535 63.4 11.8 62 10.8
2005-03-09 08:02:48 51°18.571 2°53.552 62.8 11.9 62 10.8
2005-03-09 08:02:54 51°18.581 2°53.58 63.6 11.8 63 10.9
2005-03-09 08:02:59 51°18.588 2°53.603 63.1 11.7 59 10.9
2005-03-09 08:03:04 51°18.597 2°53.626 64 11.8 62 11
2005-03-09 08:03:08 51°18.604 2°53.647 62.8 11.9 61 11.1
2005-03-09 08:03:14 51°18.613 2°53.671 62.4 11.7 60 11.1
2005-03-09 08:03:19 51°18.622 2°53.695 62.5 11.9 61 11
2005-03-09 08:03:24 51°18.629 2°53.715 63.6 11.6 62 11
2005-03-09 08:03:28 51°18.636 2°53.737 63.4 11.6 62 11.2
2005-03-09 08:03:34 51°18.645 2°53.764 63.7 11.6 62 11
2005-03-09 08:03:39 51°18.652 2°53.785 64.2 11.6 62 10.9
2005-03-09 08:03:44 51°18.659 2°53.81 64.3 11.7 63 10.9
2005-03-09 08:03:49 51°18.667 2°53.83 65.2 11.8 64 10.8
2005-03-09 08:03:54 51°18.674 2°53.853 64.2 11.8 64 10.7
2005-03-09 08:03:59 51°18.683 2°53.879 64.5 11.8 64 10.7
2005-03-09 08:04:04 51°18.69 2°53.902 63.8 11.8 64 10.7
2005-03-09 08:04:10 51°18.699 2°53.925 65 11.7 60 10.8
2005-03-09 08:04:14 51°18.706 2°53.947 63.1 11.7 60 10.6
2005-03-09 08:04:18 51°18.711 2°53.963 63.1 11.7 63 11
2005-03-09 08:04:24 51°18.721 2°53.989 61.7 11.7 60 10.8
2005-03-09 08:04:27 51°18.727 2°54.005 63 11.8 60 10.9
2005-03-09 08:04:34 51°18.738 2°54.036 62.3 11.8 60 11.1
2005-03-09 08:04:38 51°18.744 2°54.054 62.1 11.6 59 11
2005-03-09 08:04:44 51°18.754 2°54.077 62.4 11.7 59 11.1
2005-03-09 08:04:48 51°18.761 2°54.098 61.5 11.7 59 10.9
2005-03-09 08:04:54 51°18.771 2°54.124 61.2 11.7 59 11
2005-03-09 08:04:59 51°18.78 2°54.147 60.7 11.7 59 10.9
2005-03-09 08:05:04 51°18.788 2°54.166 60.6 11.8 56 11
2005-03-09 08:05:09 51°18.796 2°54.188 60.9 11.8 56 11
2005-03-09 08:05:14 51°18.805 2°54.209 61.2 11.8 58 11.2
2005-03-09 08:05:19 51°18.813 2°54.232 60.7 11.7 58 11
2005-03-09 08:05:24 51°18.822 2°54.254 61.5 11.7 58 11.1
2005-03-09 08:05:29 51°18.83 2°54.277 61.4 11.6 57 11.2
2005-03-09 08:05:34 51°18.839 2°54.301 62.4 11.6 60 10.9
2005-03-09 08:05:40 51°18.847 2°54.325 61.9 11.6 62 11
2005-03-09 08:05:44 51°18.854 2°54.342 63 11.5 59 10.9
2005-03-09 08:05:48 51°18.86 2°54.36 61.8 11.5 63 10.9
2005-03-09 08:05:54 51°18.871 2°54.388 63 11.5 63 11
2005-03-09 08:05:58 51°18.877 2°54.407 62.4 11.5 63 11
2005-03-09 08:06:04 51°18.887 2°54.43 62.1 11.5 56 11.1
2005-03-09 08:06:09 51°18.895 2°54.454 60.7 11.4 61 11.2
2005-03-09 08:06:14 51°18.902 2°54.474 60.5 11.3 57 11
2005-03-09 08:06:18 51°18.91 2°54.492 60.3 11.3 58 11.1
2005-03-09 08:06:24 51°18.919 2°54.515 60.2 11.3 58 10.9
2005-03-09 08:06:30 51°18.93 2°54.542 60.2 11.3 58 10.9
2005-03-09 08:06:34 51°18.937 2°54.56 58.9 11.3 58 11
2005-03-09 08:06:39 51°18.946 2°54.581 59.9 11.5 57 11
2005-03-09 08:06:44 51°18.954 2°54.6 58.7 11.3 56 11
2005-03-09 08:06:49 51°18.964 2°54.623 59.5 11.4 58 11.1
2005-03-09 08:06:54 51°18.972 2°54.642 58.7 11.4 53 11.1
2005-03-09 08:06:58 51°18.979 2°54.661 58.1 11.4 58 11.2
2005-03-09 08:07:03 51°18.988 2°54.681 59.4 11.4 58 11
2005-03-09 08:07:08 51°18.995 2°54.7 58.7 11.4 56 11
2005-03-09 08:07:14 51°19.006 2°54.725 59.7 11.4 56 11.1
2005-03-09 08:07:19 51°19.015 2°54.748 58.7 11.3 55 10.9
2005-03-09 08:07:24 51°19.024 2°54.765 58.3 11.3 55 11.2
2005-03-09 08:07:29 51°19.033 2°54.788 57.4 11.2 55 11.2
2005-03-09 08:07:34 51°19.041 2°54.807 57.5 11.3 57 11.3
2005-03-09 08:07:38 51°19.049 2°54.826 58.4 11.3 57 11.3
2005-03-09 08:07:43 51°19.058 2°54.847 58.7 11.3 57 11.3
2005-03-09 08:07:49 51°19.068 2°54.872 59.6 11.2 55 11
2005-03-09 08:07:54 51°19.075 2°54.89 58.8 11.3 57 11.2
2005-03-09 08:07:59 51°19.085 2°54.914 58.8 11.1 56 10.8
2005-03-09 08:08:04 51°19.091 2°54.933 59.8 11.1 56 10.7
2005-03-09 08:08:09 51°19.101 2°54.955 59.4 11.2 57 10.9
2005-03-09 08:08:14 51°19.109 2°54.975 59 11.3 58 11.1
2005-03-09 08:08:19 51°19.118 2°54.999 59.4 11.3 57 11
2005-03-09 08:08:24 51°19.126 2°55.017 59.8 11.3 57 11.1
2005-03-09 08:08:29 51°19.135 2°55.04 59.8 11.3 59 11.4
2005-03-09 08:08:34 51°19.143 2°55.059 59 11.4 58 11.2
2005-03-09 08:08:39 51°19.152 2°55.081 59.3 11.3 58 11.3
2005-03-09 08:08:44 51°19.16 2°55.102 58.7 11.2 55 11.4
2005-03-09 08:08:49 51°19.17 2°55.124 58.7 11.4 56 11.3
2005-03-09 08:08:54 51°19.177 2°55.144 58.9 11.4 56 11.2
2005-03-09 08:08:58 51°19.185 2°55.163 59.5 11.4 57 11.3
2005-03-09 08:09:03 51°19.192 2°55.184 60.5 11.4 61 11.2
2005-03-09 08:09:09 51°19.203 2°55.21 59.6 11.2 57 11.1
2005-03-09 08:09:14 51°19.21 2°55.229 60 11.3 59 11.1
2005-03-09 08:09:19 51°19.219 2°55.253 59.8 11.3 59 11
2005-03-09 08:09:24 51°19.227 2°55.272 60.2 11.3 59 11.2
2005-03-09 08:09:30 51°19.237 2°55.297 59.3 11.3 59 11.3
2005-03-09 08:09:34 51°19.245 2°55.316 58.8 11.1 56 11.1
2005-03-09 08:09:38 51°19.251 2°55.332 59.2 11.2 57 11.2
2005-03-09 08:09:44 51°19.261 2°55.356 59.1 11.4 57 11.2
2005-03-09 08:09:48 51°19.268 2°55.372 58.4 11.4 58 11.2
2005-03-09 08:09:54 51°19.28 2°55.399 58.7 11.4 58 11.2
2005-03-09 08:09:59 51°19.287 2°55.42 58.7 11.2 57 11.4
2005-03-09 08:10:03 51°19.294 2°55.437 59.9 11.4 60 11.1
2005-03-09 08:10:07 51°19.301 2°55.455 60.1 11.4 57 11.1
2005-03-09 08:10:14 51°19.313 2°55.485 59.2 11.4 57 11.1
2005-03-09 08:10:18 51°19.32 2°55.502 58.9 11.5 56 11
2005-03-09 08:10:24 51°19.329 2°55.525 59.3 11.4 56 11.1
2005-03-09 08:10:29 51°19.339 2°55.548 58.9 11.4 56 11.1
2005-03-09 08:10:34 51°19.348 2°55.57 59.3 11.6 58 11
2005-03-09 08:10:38 51°19.355 2°55.587 59.4 11.6 57 11
2005-03-09 08:10:44 51°19.364 2°55.611 59.2 11.6 57 11
2005-03-09 08:10:49 51°19.374 2°55.635 59.2 11.7 58 11.1
2005-03-09 08:10:54 51°19.383 2°55.656 58.6 11.6 56 10.9
2005-03-09 08:10:59 51°19.391 2°55.678 58.3 11.6 56 10.8
2005-03-09 08:11:04 51°19.399 2°55.697 60.2 11.6 56 10.8
2005-03-09 08:11:08 51°19.407 2°55.713 58.9 11.7 54 10.8
2005-03-09 08:11:14 51°19.418 2°55.742 59.5 11.7 54 11
2005-03-09 08:11:19 51°19.425 2°55.762 58.7 11.7 55 10.9
2005-03-09 08:11:24 51°19.435 2°55.785 58.9 11.7 55 11.1
2005-03-09 08:11:28 51°19.442 2°55.801 58.3 11.6 54 11
2005-03-09 08:11:34 51°19.454 2°55.828 58.8 11.6 54 11
2005-03-09 08:11:39 51°19.463 2°55.85 58.2 11.7 55 11
2005-03-09 08:11:44 51°19.471 2°55.87 58.1 11.6 57 11
2005-03-09 08:11:48 51°19.48 2°55.888 58.4 11.7 55 11.2
2005-03-09 08:11:54 51°19.491 2°55.914 59.3 11.7 55 11.2
2005-03-09 08:12:00 51°19.5 2°55.937 58.4 11.8 56 11.4
2005-03-09 08:12:04 51°19.507 2°55.956 59 11.7 56 11.2
2005-03-09 08:12:09 51°19.516 2°55.98 59.1 11.7 57 11
2005-03-09 08:12:14 51°19.525 2°55.999 60.2 11.8 58 11
2005-03-09 08:12:18 51°19.532 2°56.016 59.6 11.7 55 11
2005-03-09 08:12:24 51°19.543 2°56.042 58.3 11.8 57 11.1
2005-03-09 08:12:27 51°19.549 2°56.058 58.5 11.8 59 11.2
2005-03-09 08:12:34 51°19.561 2°56.085 59.6 11.8 57 11.1
2005-03-09 08:12:38 51°19.569 2°56.105 58.3 11.8 58 10.9
2005-03-09 08:12:44 51°19.579 2°56.129 59.1 12 58 11
2005-03-09 08:12:49 51°19.589 2°56.152 58.5 11.7 56 11.1
2005-03-09 08:12:54 51°19.597 2°56.171 59.1 11.7 56 11
2005-03-09 08:12:59 51°19.605 2°56.194 58.6 11.7 56 10.8
2005-03-09 08:13:04 51°19.615 2°56.216 59.1 11.7 56 10.8
2005-03-09 08:13:09 51°19.624 2°56.24 59.5 11.7 56 10.9
2005-03-09 08:13:14 51°19.632 2°56.259 59.4 11.7 56 10.8
2005-03-09 08:13:19 51°19.642 2°56.281 59.9 11.8 57 11.1
2005-03-09 08:13:24 51°19.65 2°56.301 58.9 11.8 57 11.1
2005-03-09 08:13:29 51°19.659 2°56.328 59 11.8 57 10.9
2005-03-09 08:13:34 51°19.668 2°56.346 60.6 11.7 54 10.9
2005-03-09 08:13:39 51°19.677 2°56.371 57.8 11.6 55 11.1
2005-03-09 08:13:44 51°19.687 2°56.389 58.8 11.7 59 11.2
2005-03-09 08:13:48 51°19.694 2°56.407 57.8 11.7 58 11.1
2005-03-09 08:13:54 51°19.705 2°56.435 58.9 11.7 58 11.2
2005-03-09 08:13:58 51°19.712 2°56.454 58.8 11.9 61 11.5
2005-03-09 08:14:03 51°19.72 2°56.475 60 11.5 60 11.3
2005-03-09 08:14:09 51°19.731 2°56.501 60.1 11.5 60 11.2
2005-03-09 08:14:14 51°19.737 2°56.523 59.8 11.7 59 10.9
2005-03-09 08:14:20 51°19.749 2°56.548 60.9 11.9 63 11
2005-03-09 08:14:24 51°19.756 2°56.566 59.8 12 60 11.3
2005-03-09 08:14:29 51°19.765 2°56.588 57.7 11.8 56 11.2
2005-03-09 08:14:34 51°19.776 2°56.612 58.7 11.8 56 11.3
2005-03-09 08:14:40 51°19.785 2°56.636 58.8 11.9 56 11.4
2005-03-09 08:14:44 51°19.794 2°56.656 58.8 11.9 56 11.4
2005-03-09 08:14:49 51°19.803 2°56.678 58.6 12 60 11.4
2005-03-09 08:14:54 51°19.811 2°56.696 59 12 60 11.2
2005-03-09 08:14:59 51°19.82 2°56.719 57.9 11.8 57 10.9
2005-03-09 08:15:04 51°19.83 2°56.741 59.5 11.8 57 11
2005-03-09 08:15:09 51°19.839 2°56.765 58.7 11.9 56 11.1
2005-03-09 08:15:14 51°19.848 2°56.786 58.5 11.8 56 11.2
2005-03-09 08:15:18 51°19.855 2°56.804 58.3 11.7 56 11
2005-03-09 08:15:24 51°19.865 2°56.829 60.3 11.9 58 11.2
2005-03-09 08:15:29 51°19.875 2°56.852 59.6 11.6 58 11.4
2005-03-09 08:15:34 51°19.883 2°56.871 59.5 11.8 55 11.3
2005-03-09 08:15:39 51°19.891 2°56.893 59.4 11.8 57 11.2
2005-03-09 08:15:44 51°19.901 2°56.914 59 11.6 55 11.4
2005-03-09 08:15:50 51°19.911 2°56.941 58.4 11.6 55 11.3
2005-03-09 08:15:54 51°19.92 2°56.96 59.7 11.8 60 11.1
2005-03-09 08:15:58 51°19.926 2°56.978 60 11.8 56 11.1
2005-03-09 08:16:04 51°19.936 2°57.001 60.2 11.8 56 11.2
2005-03-09 08:16:09 51°19.946 2°57.024 59.7 11.7 57 11.4
2005-03-09 08:16:14 51°19.954 2°57.047 58.7 11.7 57 11.4
2005-03-09 08:16:19 51°19.964 2°57.068 60.5 11.8 59 11.3
2005-03-09 08:16:23 51°19.971 2°57.087 58.7 11.7 53 11.3
2005-03-09 08:16:30 51°19.982 2°57.115 59.3 11.7 53 11.3
2005-03-09 08:16:34 51°19.989 2°57.132 59.5 11.7 53 11.3
2005-03-09 08:16:39 51°19.999 2°57.156 59.9 11.7 55 11.3
2005-03-09 08:16:44 51°20.008 2°57.176 59.9 11.8 58 11.5
2005-03-09 08:16:49 51°20.016 2°57.199 58.4 11.8 58 11.2
2005-03-09 08:16:54 51°20.023 2°57.219 60 11.5 59 10.7
2005-03-09 08:16:59 51°20.034 2°57.243 60.6 11.7 57 10.8
2005-03-09 08:17:04 51°20.042 2°57.263 59.3 11.7 57 11
2005-03-09 08:17:09 51°20.05 2°57.285 59.6 11.7 60 11.1
2005-03-09 08:17:14 51°20.06 2°57.308 59.4 11.7 60 11.3
2005-03-09 08:17:18 51°20.067 2°57.326 58.8 11.8 59 11.4
2005-03-09 08:17:24 51°20.076 2°57.35 60.7 11.9 59 11.5
2005-03-09 08:17:29 51°20.086 2°57.375 59.8 11.8 55 11.6
2005-03-09 08:17:34 51°20.096 2°57.396 59.8 11.8 59 11.6
2005-03-09 08:17:39 51°20.104 2°57.417 58.5 11.9 57 11.7
2005-03-09 08:17:44 51°20.111 2°57.438 58 11.9 57 11
2005-03-09 08:17:48 51°20.12 2°57.454 59.4 11.8 55 11.2
2005-03-09 08:17:54 51°20.13 2°57.48 58.8 11.8 57 11.2
2005-03-09 08:17:59 51°20.14 2°57.505 59 11.7 58 11.1
2005-03-09 08:18:04 51°20.148 2°57.524 60 11.6 58 11.3
2005-03-09 08:18:08 51°20.156 2°57.545 59.7 11.8 59 11.4
2005-03-09 08:18:14 51°20.166 2°57.57 58.7 11.8 59 11.4
2005-03-09 08:18:18 51°20.172 2°57.585 59.4 11.9 59 11.3
2005-03-09 08:18:24 51°20.183 2°57.612 60 11.8 59 11.3
2005-03-09 08:18:29 51°20.193 2°57.636 59.5 11.8 59 11.4
2005-03-09 08:18:34 51°20.201 2°57.656 59.8 11.8 58 11.4
2005-03-09 08:18:40 51°20.211 2°57.683 60 11.8 57 11.2
2005-03-09 08:18:44 51°20.219 2°57.701 59.8 11.9 57 11.4
2005-03-09 08:18:49 51°20.226 2°57.722 59.4 11.9 58 11.3
2005-03-09 08:18:54 51°20.236 2°57.745 60.4 11.9 58 11.3
2005-03-09 08:18:58 51°20.244 2°57.765 59.5 11.9 58 11.3
2005-03-09 08:19:04 51°20.253 2°57.788 60.2 11.9 58 11.4
2005-03-09 08:19:09 51°20.262 2°57.811 59.7 11.9 55 11.3
2005-03-09 08:19:14 51°20.272 2°57.835 59.3 11.9 57 11.2
2005-03-09 08:19:19 51°20.281 2°57.858 59.2 11.9 57 11.2
2005-03-09 08:19:24 51°20.29 2°57.88 59.4 11.9 57 11.3
2005-03-09 08:19:29 51°20.297 2°57.899 58.5 11.8 57 11
2005-03-09 08:19:34 51°20.307 2°57.921 59.5 11.8 57 11
2005-03-09 08:19:39 51°20.316 2°57.944 59.7 11.8 57 11.1
2005-03-09 08:19:44 51°20.325 2°57.965 58.8 11.9 55 11.1
2005-03-09 08:19:48 51°20.332 2°57.983 60.2 11.9 59 11.2
2005-03-09 08:19:54 51°20.344 2°58.011 58.5 11.9 54 11.2
2005-03-09 08:19:58 51°20.352 2°58.029 58.9 12 59 11.3
2005-03-09 08:20:04 51°20.362 2°58.053 58.9 12 54 11.3
2005-03-09 08:20:09 51°20.372 2°58.078 59.5 12.1 59 11.5
2005-03-09 08:20:14 51°20.381 2°58.1 58.8 11.9 55 11.3
2005-03-09 08:20:19 51°20.39 2°58.123 59.3 11.9 57 11.2
2005-03-09 08:20:24 51°20.398 2°58.143 60.3 12.1 56 11.2
2005-03-09 08:20:29 51°20.408 2°58.168 60.1 12.2 57 11.3
2005-03-09 08:20:34 51°20.418 2°58.19 59.6 12.2 56 11.1
2005-03-09 08:20:39 51°20.427 2°58.213 58.8 12.1 56 11.3
2005-03-09 08:20:44 51°20.436 2°58.236 60 12.3 57 11.2
2005-03-09 08:20:49 51°20.445 2°58.259 59 12.3 56 11
2005-03-09 08:20:54 51°20.454 2°58.281 60.3 12.2 60 11.1
2005-03-09 08:20:58 51°20.461 2°58.299 60.7 12.2 57 10.9
2005-03-09 08:21:04 51°20.472 2°58.326 59.6 12.4 59 11.1
2005-03-09 08:21:08 51°20.48 2°58.342 58.1 12.1 55 11.1
2005-03-09 08:21:14 51°20.49 2°58.369 59.3 12.1 59 11.2
2005-03-09 08:21:19 51°20.501 2°58.393 58.7 12.1 56 11.2
2005-03-09 08:21:24 51°20.509 2°58.414 58.6 12.3 58 11.3
2005-03-09 08:21:29 51°20.52 2°58.438 59.3 12.3 58 11.4
2005-03-09 08:21:34 51°20.528 2°58.461 59.8 12.2 59 11.5
2005-03-09 08:21:38 51°20.537 2°58.478 58.8 12.1 54 11.3
2005-03-09 08:21:45 51°20.548 2°58.509 59.1 12.1 54 11.2
2005-03-09 08:21:48 51°20.555 2°58.524 60.4 12.1 55 11.3
2005-03-09 08:21:54 51°20.565 2°58.548 58.2 12.1 54 11.2
2005-03-09 08:21:59 51°20.574 2°58.57 59.8 12 59 11.3
2005-03-09 08:22:04 51°20.583 2°58.593 58.9 12.3 57 11.4
2005-03-09 08:22:09 51°20.593 2°58.617 58.7 12.2 57 11.1
2005-03-09 08:22:14 51°20.602 2°58.64 59.8 11.9 57 11.2
2005-03-09 08:22:19 51°20.612 2°58.663 59.3 11.9 57 11
2005-03-09 08:22:24 51°20.621 2°58.685 59.6 11.9 57 11.1
2005-03-09 08:22:30 51°20.631 2°58.709 59.1 12.2 59 11.1
2005-03-09 08:22:34 51°20.64 2°58.728 58.9 12.2 59 11.2
2005-03-09 08:22:38 51°20.646 2°58.747 58.4 12 55 11.1
2005-03-09 08:22:43 51°20.656 2°58.769 58.8 12.1 57 11.3
2005-03-09 08:22:49 51°20.666 2°58.795 59.2 12.1 55 11.3
2005-03-09 08:22:54 51°20.676 2°58.819 60.1 12.2 59 11.4
2005-03-09 08:22:59 51°20.683 2°58.841 59.4 12 56 11.3
2005-03-09 08:23:04 51°20.693 2°58.862 60.9 12.2 56 11.2
2005-03-09 08:23:09 51°20.702 2°58.884 58.2 12.1 55 11.2
2005-03-09 08:23:14 51°20.712 2°58.907 60.2 12 58 11.2
2005-03-09 08:23:19 51°20.721 2°58.932 59.3 11.9 54 11.2
2005-03-09 08:23:24 51°20.729 2°58.952 59.7 12.1 57 11.2
2005-03-09 08:23:28 51°20.736 2°58.97 59.6 12 58 11.4
2005-03-09 08:23:34 51°20.747 2°58.999 58.5 11.9 57 11.3
2005-03-09 08:23:40 51°20.759 2°59.024 60.9 12 61 11.3
2005-03-09 08:23:44 51°20.766 2°59.044 58.7 12.2 53 11.3
2005-03-09 08:23:49 51°20.775 2°59.067 59.6 12.1 59 11.3
2005-03-09 08:23:54 51°20.783 2°59.086 60.2 12.1 53 11.3
2005-03-09 08:23:59 51°20.793 2°59.111 58.7 12.1 58 11.2
2005-03-09 08:24:04 51°20.802 2°59.132 58 12.1 58 11.3
2005-03-09 08:24:08 51°20.81 2°59.15 58 12 56 11.2
2005-03-09 08:24:14 51°20.821 2°59.174 58.7 12 56 11.1
2005-03-09 08:24:18 51°20.828 2°59.196 58.2 12.2 61 11
2005-03-09 08:24:24 51°20.839 2°59.219 58.7 12.2 61 10.9
2005-03-09 08:24:29 51°20.849 2°59.245 58.3 12 54 11
2005-03-09 08:24:34 51°20.859 2°59.266 59.5 12.1 54 11
2005-03-09 08:24:39 51°20.868 2°59.288 57 12.1 52 11.2
2005-03-09 08:24:44 51°20.878 2°59.31 57.9 12 57 11.3
2005-03-09 08:24:49 51°20.887 2°59.333 58.3 12.1 57 11.3
2005-03-09 08:24:54 51°20.896 2°59.355 58 12 55 11.3
2005-03-09 08:24:59 51°20.904 2°59.377 60 12 58 11.4
2005-03-09 08:25:04 51°20.913 2°59.397 60 12.1 58 11.2
2005-03-09 08:25:08 51°20.922 2°59.418 59.1 12 55 11.2
2005-03-09 08:25:14 51°20.932 2°59.445 59.5 12.1 60 11.2
2005-03-09 08:25:18 51°20.94 2°59.463 60.2 12.3 57 11.3
2005-03-09 08:25:24 51°20.95 2°59.487 58.7 12.2 55 11.2
2005-03-09 08:25:29 51°20.961 2°59.511 57.2 11.9 54 11.3
2005-03-09 08:25:34 51°20.969 2°59.534 58.6 11.9 54 11.1
2005-03-09 08:25:39 51°20.979 2°59.553 58.2 12.1 53 11.1
2005-03-09 08:25:43 51°20.986 2°59.574 58.2 12 60 11.2
2005-03-09 08:25:48 51°20.995 2°59.593 60.1 12 60 11.1
2005-03-09 08:25:54 51°21.006 2°59.621 58.7 12.1 58 11.2
2005-03-09 08:25:59 51°21.016 2°59.645 59.3 12.1 58 11.2
2005-03-09 08:26:04 51°21.025 2°59.667 58.9 12.1 55 11.3
2005-03-09 08:26:09 51°21.035 2°59.689 58.1 12.1 57 11.3
2005-03-09 08:26:14 51°21.043 2°59.709 58.7 12.2 56 11.2
2005-03-09 08:26:19 51°21.053 2°59.734 58.4 12.1 56 11.4
2005-03-09 08:26:22 51°21.059 2°59.748 59 12.2 58 11.1
2005-03-09 08:26:30 51°21.072 2°59.782 60.1 12.2 58 10.8
2005-03-09 08:26:34 51°21.079 2°59.8 59.2 12 57 10.9
2005-03-09 08:26:39 51°21.088 2°59.823 60 12.1 60 11
2005-03-09 08:26:44 51°21.097 2°59.846 60 12.2 58 11
2005-03-09 08:26:49 51°21.106 2°59.868 60.2 12.3 59 11
2005-03-09 08:26:54 51°21.116 2°59.893 59.2 12.3 56 11
2005-03-09 08:26:59 51°21.124 2°59.913 60.2 12.1 58 11.2
2005-03-09 08:27:04 51°21.134 2°59.937 61.2 12.2 59 11.2
2005-03-09 08:27:09 51°21.144 2°59.961 59.6 12.1 55 11.1
2005-03-09 08:27:14 51°21.152 2°59.985 58.8 12.1 55 11
2005-03-09 08:27:19 51°21.162 3°0.007 60.4 12.1 55 10.9
2005-03-09 08:27:23 51°21.169 3°0.025 59 12.1 55 11
2005-03-09 08:27:28 51°21.177 3°0.045 59.6 12.2 59 11.1
2005-03-09 08:27:34 51°21.189 3°0.074 59.5 12.2 59 11.4
2005-03-09 08:27:38 51°21.196 3°0.092 59.3 12 57 11.1
2005-03-09 08:27:44 51°21.207 3°0.117 59.6 12 57 11.3
2005-03-09 08:27:48 51°21.216 3°0.137 58.7 12.1 55 11.2
2005-03-09 08:27:54 51°21.226 3°0.165 58.5 12.1 55 11
2005-03-09 08:27:59 51°21.235 3°0.187 58.7 12.1 57 11
2005-03-09 08:28:04 51°21.243 3°0.207 59.3 12.1 57 11
2005-03-09 08:28:08 51°21.251 3°0.225 59.4 12.2 56 11.2
2005-03-09 08:28:14 51°21.262 3°0.251 58.8 12 58 11.2
2005-03-09 08:28:19 51°21.271 3°0.275 60.5 12.1 59 11.4
2005-03-09 08:28:24 51°21.28 3°0.298 59.5 12.3 57 11.4
2005-03-09 08:28:28 51°21.287 3°0.316 59.1 12.2 58 11.3
2005-03-09 08:28:34 51°21.299 3°0.345 60 12.2 55 11.4
2005-03-09 08:28:39 51°21.307 3°0.366 59.1 12.2 60 11.3
2005-03-09 08:28:44 51°21.318 3°0.391 59.9 12.2 60 11.3
2005-03-09 08:28:48 51°21.323 3°0.407 59.5 12.3 58 11.4
2005-03-09 08:28:54 51°21.335 3°0.433 59.2 12.2 55 11.2
2005-03-09 08:28:58 51°21.343 3°0.455 59.6 12.2 58 11
2005-03-09 08:29:03 51°21.352 3°0.477 58.8 12.2 58 10.9
2005-03-09 08:29:08 51°21.36 3°0.498 58.7 12.3 56 11.2
2005-03-09 08:29:14 51°21.373 3°0.527 58.5 12.2 57 11.2
2005-03-09 08:29:18 51°21.379 3°0.546 59.9 12.2 57 11.2
2005-03-09 08:29:24 51°21.389 3°0.573 61.7 12.2 57 11.4
2005-03-09 08:29:27 51°21.394 3°0.589 62.2 12.3 61 11.4
2005-03-09 08:29:34 51°21.405 3°0.623 63.1 12.3 61 11.3
2005-03-09 08:29:40 51°21.413 3°0.649 63.5 12.3 61 11.3
2005-03-09 08:29:44 51°21.42 3°0.668 64.5 12.3 65 11.3
2005-03-09 08:29:48 51°21.426 3°0.689 64.5 12.4 64 11.3
2005-03-09 08:29:54 51°21.436 3°0.72 63.6 12.4 64 11.2
2005-03-09 08:30:00 51°21.445 3°0.747 64.1 12.3 63 11.2
2005-03-09 08:30:04 51°21.451 3°0.766 64.2 12.3 62 11.3
2005-03-09 08:30:07 51°21.456 3°0.784 65.7 12.5 64 11.4
2005-03-09 08:30:14 51°21.468 3°0.819 65.2 12.6 63 11.4
2005-03-09 08:30:18 51°21.474 3°0.838 62.7 12.5 63 11.4
2005-03-09 08:30:24 51°21.483 3°0.865 64.2 12.5 63 11.4
2005-03-09 08:30:27 51°21.488 3°0.882 62.7 12.3 67 11.3
2005-03-09 08:30:34 51°21.499 3°0.915 65 12.4 63 11.1
2005-03-09 08:30:39 51°21.504 3°0.939 64.5 12.4 60 11
2005-03-09 08:30:44 51°21.514 3°0.962 65.4 12.3 62 11.1
2005-03-09 08:30:49 51°21.52 3°0.987 63.8 12.3 60 11.2
2005-03-09 08:30:54 51°21.53 3°1.014 65.2 12.3 60 11.2
2005-03-09 08:30:58 51°21.535 3°1.033 64.5 12.1 67 11.4
2005-03-09 08:31:02 51°21.54 3°1.053 68 12.1 67 11.2
2005-03-09 08:31:09 51°21.55 3°1.089 67.2 12.1 67 11.3
2005-03-09 08:31:14 51°21.558 3°1.11 66.4 12.6 60 11.3
2005-03-09 08:31:19 51°21.564 3°1.135 66.7 12.6 60 11.2
2005-03-09 08:31:24 51°21.572 3°1.16 65.9 12.6 60 11.2
2005-03-09 08:31:29 51°21.579 3°1.188 67.2 12.4 67 11.5
2005-03-09 08:31:34 51°21.586 3°1.21 67 12.5 63 11.3
2005-03-09 08:31:38 51°21.593 3°1.233 65.8 12.5 63 11.2
2005-03-09 08:31:44 51°21.601 3°1.259 66 12.5 64 11.2
2005-03-09 08:31:49 51°21.61 3°1.287 64.2 12.4 61 11.2
2005-03-09 08:31:54 51°21.618 3°1.311 65.5 12.4 65 11.4
2005-03-09 08:31:58 51°21.623 3°1.331 64.5 12.2 66 11.1
2005-03-09 08:32:04 51°21.633 3°1.361 65.8 12.2 66 10.8
2005-03-09 08:32:09 51°21.64 3°1.385 65.2 12.5 64 10.7
2005-03-09 08:32:14 51°21.648 3°1.409 65 12.5 64 11.1
2005-03-09 08:32:18 51°21.655 3°1.429 64.4 12.2 65 11.4
2005-03-09 08:32:24 51°21.663 3°1.456 65.7 12.3 65 11.7
2005-03-09 08:32:29 51°21.671 3°1.482 65 12.2 64 11.7
2005-03-09 08:32:34 51°21.678 3°1.506 66.1 12.4 67 11.7
2005-03-09 08:32:39 51°21.686 3°1.532 66.2 12.3 62 11.7
2005-03-09 08:32:44 51°21.693 3°1.554 66.3 12.5 64 11.6
2005-03-09 08:32:46 51°21.696 3°1.567 65.3 12.5 64 11.2
2005-03-09 08:32:54 51°21.71 3°1.604 63.8 12.3 61 11.4
2005-03-09 08:32:59 51°21.718 3°1.626 62 12.3 58 11.4
2005-03-09 08:33:04 51°21.728 3°1.648 60.2 12.3 58 11.3
2005-03-09 08:33:08 51°21.736 3°1.667 59.5 12.4 57 11.1
2005-03-09 08:33:14 51°21.747 3°1.695 58.7 12.3 56 11.2
2005-03-09 08:33:19 51°21.756 3°1.719 59.1 12.3 56 11.4
2005-03-09 08:33:24 51°21.766 3°1.742 60 12.4 59 11.2
2005-03-09 08:33:28 51°21.773 3°1.761 59.5 12.4 59 11
2005-03-09 08:33:34 51°21.784 3°1.788 59.5 12.4 59 11.4
2005-03-09 08:33:39 51°21.793 3°1.81 58.7 12.4 59 11.4
2005-03-09 08:33:44 51°21.802 3°1.834 59 12.4 59 11.3
2005-03-09 08:33:49 51°21.811 3°1.854 58.7 12.4 57 11.3
2005-03-09 08:33:54 51°21.821 3°1.877 57.5 12.1 54 11.4
2005-03-09 08:33:59 51°21.831 3°1.896 56.2 12.1 50 11.5
2005-03-09 08:34:04 51°21.842 3°1.917 54.4 12.1 50 11.6
2005-03-09 08:34:08 51°21.852 3°1.937 53.6 12.4 51 11.6
2005-03-09 08:34:14 51°21.865 3°1.96 51.7 12.4 51 11.9
2005-03-09 08:34:18 51°21.873 3°1.978 51.9 12 56 11.5
2005-03-09 08:34:24 51°21.884 3°2 53.4 11.9 50 10.8
2005-03-09 08:34:28 51°21.893 3°2.018 51.9 12 52 10.7
2005-03-09 08:34:34 51°21.907 3°2.043 51.8 12 47 11.1
2005-03-09 08:34:39 51°21.919 3°2.062 50.4 12 48 11.3
2005-03-09 08:34:44 51°21.929 3°2.08 50.3 12.1 48 11.5
2005-03-09 08:34:49 51°21.941 3°2.101 51.2 12.2 49 11.5
2005-03-09 08:34:54 51°21.953 3°2.123 50.4 12.2 49 11.7
2005-03-09 08:34:58 51°21.963 3°2.137 49.8 12.2 46 12
2005-03-09 08:35:04 51°21.977 3°2.157 46.1 12.1 41 11.9
2005-03-09 08:35:10 51°21.993 3°2.176 43.3 12.3 41 11.8
2005-03-09 08:35:14 51°22.006 3°2.19 41.1 12.2 37 11.8
2005-03-09 08:35:18 51°22.017 3°2.202 39.1 12.3 33 12.1
2005-03-09 08:35:24 51°22.034 3°2.22 37.5 12.3 33 11.6
2005-03-09 08:35:29 51°22.048 3°2.234 36.9 12.1 32 11.7
2005-03-09 08:35:34 51°22.062 3°2.246 35.4 12.1 29 11.8
2005-03-09 08:35:38 51°22.074 3°2.259 35.2 12.1 33 11.6
2005-03-09 08:35:43 51°22.089 3°2.273 35.8 12.1 33 11.9
2005-03-09 08:35:49 51°22.105 3°2.289 35.5 12.1 33 11.6
2005-03-09 08:35:54 51°22.117 3°2.302 35.7 12.1 33 11.3
2005-03-09 08:35:58 51°22.13 3°2.317 35.7 12 35 11.1
2005-03-09 08:36:04 51°22.147 3°2.333 36.6 12 35 11.3
2005-03-09 08:36:08 51°22.158 3°2.345 36.8 11.6 33 11.1
2005-03-09 08:36:14 51°22.172 3°2.361 36.2 11.7 33 11.1
2005-03-09 08:36:19 51°22.188 3°2.376 36.9 11.8 34 11.4
2005-03-09 08:36:24 51°22.199 3°2.388 36.1 11.8 31 11.5
2005-03-09 08:36:28 51°22.213 3°2.402 36.4 11.7 32 11.8
2005-03-09 08:36:34 51°22.229 3°2.418 36.1 11.7 32 11.6
2005-03-09 08:36:39 51°22.242 3°2.432 36.5 11.9 33 11.4
2005-03-09 08:36:44 51°22.256 3°2.445 36.2 12 32 11.5
2005-03-09 08:36:49 51°22.271 3°2.461 35.8 12 32 11.3
2005-03-09 08:36:54 51°22.284 3°2.473 36.3 12 32 11.5
2005-03-09 08:36:58 51°22.296 3°2.486 35.9 12 34 11.3
2005-03-09 08:37:03 51°22.311 3°2.501 36.7 12.1 33 11.4
2005-03-09 08:37:09 51°22.326 3°2.517 36.5 12 33 11.6
2005-03-09 08:37:14 51°22.339 3°2.532 36.8 11.9 34 11.4
2005-03-09 08:37:19 51°22.355 3°2.547 37.3 11.9 34 11.5
2005-03-09 08:37:24 51°22.368 3°2.561 36.3 12 33 11.4
2005-03-09 08:37:28 51°22.379 3°2.572 37 12.1 32 11.6
2005-03-09 08:37:34 51°22.396 3°2.589 36.4 12.1 32 11.3
2005-03-09 08:37:39 51°22.411 3°2.604 36.5 12 33 11.3
2005-03-09 08:37:44 51°22.423 3°2.617 36.3 12 33 11
2005-03-09 08:37:49 51°22.439 3°2.634 37.3 12 33 10.9
2005-03-09 08:37:54 51°22.451 3°2.647 36.2 12 34 10.9
2005-03-09 08:37:58 51°22.464 3°2.659 36.9 12.1 31 10.8
2005-03-09 08:38:03 51°22.478 3°2.674 36.7 12.1 31 10.9
2005-03-09 08:38:09 51°22.495 3°2.691 37.1 12.1 31 11
2005-03-09 08:38:14 51°22.507 3°2.703 37 12.1 32 11.1
2005-03-09 08:38:19 51°22.524 3°2.718 36.6 11.9 31 11.1
2005-03-09 08:38:24 51°22.539 3°2.725 31.9 11.8 24 11.4
2005-03-09 08:38:28 51°22.55 3°2.729 24.8 11.6 12 11.4
2005-03-09 08:38:34 51°22.571 3°2.73 17 11.6 12 11.5
2005-03-09 08:38:39 51°22.585 3°2.729 8.9 11.3 1 11.5
2005-03-09 08:38:44 51°22.6 3°2.723 1.9 11.2 354 11.4
2005-03-09 08:38:49 51°22.617 3°2.717 355.5 11.4 347 11.5
2005-03-09 08:38:54 51°22.631 3°2.711 353.6 11.7 346 11.3
2005-03-09 08:38:59 51°22.647 3°2.705 353.5 11.8 347 11.2
2005-03-09 08:39:03 51°22.662 3°2.7 354.1 11.8 348 11.2
2005-03-09 08:39:09 51°22.681 3°2.694 355.2 11.9 349 11.3
2005-03-09 08:39:14 51°22.697 3°2.69 355.6 11.9 349 11.2
2005-03-09 08:39:19 51°22.713 3°2.685 356.3 12 351 11.2
2005-03-09 08:39:24 51°22.73 3°2.681 356.4 12 351 11.2
2005-03-09 08:39:29 51°22.745 3°2.677 356.6 12 350 11
2005-03-09 08:39:34 51°22.763 3°2.672 356.9 12.1 351 11.2
2005-03-09 08:39:38 51°22.777 3°2.668 357 12.1 351 11
2005-03-09 08:39:44 51°22.797 3°2.664 357 12.1 351 11.1
2005-03-09 08:39:48 51°22.809 3°2.66 356.3 12 350 10.7
2005-03-09 08:39:54 51°22.828 3°2.654 355.2 12.2 348 10.5
2005-03-09 08:39:58 51°22.843 3°2.649 354.7 12 349 10.5
2005-03-09 08:40:04 51°22.861 3°2.642 354.7 12 349 10.4
2005-03-09 08:40:09 51°22.879 3°2.636 354.1 12.1 348 10.3
2005-03-09 08:40:14 51°22.894 3°2.63 353.5 12 347 10.2
2005-03-09 08:40:19 51°22.912 3°2.624 353.1 12 347 10.2
2005-03-09 08:40:24 51°22.926 3°2.618 353.3 12 347 10.3
2005-03-09 08:40:30 51°22.947 3°2.61 353 12 347 10.7
2005-03-09 08:40:34 51°22.961 3°2.605 352.8 12.3 346 11.5
2005-03-09 08:40:38 51°22.975 3°2.6 352.7 12.2 346 11.5
2005-03-09 08:40:45 51°22.996 3°2.592 352.5 12.2 346 11.8
2005-03-09 08:40:49 51°23.011 3°2.586 352.5 12.4 347 11.8
2005-03-09 08:40:54 51°23.026 3°2.58 352.7 12.3 348 12.2
2005-03-09 08:40:59 51°23.045 3°2.573 353 12.3 348 12.2
2005-03-09 08:41:04 51°23.06 3°2.567 353.3 12.3 347 12.6
2005-03-09 08:41:08 51°23.074 3°2.562 352.3 12.3 347 12.5
2005-03-09 08:41:14 51°23.093 3°2.554 352 12.3 347 12.8
2005-03-09 08:41:19 51°23.109 3°2.548 351.4 12.4 345 12.7
2005-03-09 08:41:24 51°23.126 3°2.54 351.2 12.4 345 12.9
2005-03-09 08:41:29 51°23.143 3°2.533 349.9 12.3 343 12.9
2005-03-09 08:41:34 51°23.159 3°2.526 349.8 12.5 345 13.2
2005-03-09 08:41:39 51°23.174 3°2.518 350.3 12.3 344 12.8
2005-03-09 08:41:43 51°23.19 3°2.512 349.8 12.3 343 13.5
2005-03-09 08:41:49 51°23.21 3°2.504 350.2 12.3 343 13.3
2005-03-09 08:41:54 51°23.224 3°2.497 350.6 12.2 345 13.3
2005-03-09 08:41:59 51°23.243 3°2.489 350.1 12.2 345 13.4
2005-03-09 08:42:04 51°23.259 3°2.482 350.2 12.2 345 13.5
2005-03-09 08:42:08 51°23.271 3°2.477 350.3 12.4 344 13.4
2005-03-09 08:42:14 51°23.292 3°2.467 350.4 12.4 344 13.3
2005-03-09 08:42:19 51°23.308 3°2.46 350.5 12.3 345 13.4
2005-03-09 08:42:24 51°23.326 3°2.453 350.7 12.3 345 12.7
2005-03-09 08:42:28 51°23.337 3°2.448 350.8 12.3 346 13.1
2005-03-09 08:42:34 51°23.356 3°2.439 351 12.4 345 13
2005-03-09 08:42:38 51°23.371 3°2.432 351 12.4 345 12.8
2005-03-09 08:42:44 51°23.39 3°2.424 350.5 12.4 345 12.9
2005-03-09 08:42:48 51°23.402 3°2.419 350.5 12.3 345 12.4
2005-03-09 08:42:54 51°23.423 3°2.41 350.6 12.1 345 12.5
2005-03-09 08:42:59 51°23.439 3°2.403 350.3 12.1 345 12.2
2005-03-09 08:43:04 51°23.454 3°2.397 350.4 12.1 345 11.9
2005-03-09 08:43:08 51°23.467 3°2.392 350.9 12.2 345 12.3
2005-03-09 08:43:14 51°23.488 3°2.383 350.8 12.2 345 12.4
2005-03-09 08:43:19 51°23.504 3°2.376 351.1 12.1 346 12.5
2005-03-09 08:43:24 51°23.519 3°2.369 350.9 12.1 346 12.7
2005-03-09 08:43:27 51°23.531 3°2.365 350.4 12.2 345 12.9
2005-03-09 08:43:34 51°23.553 3°2.355 350.6 12.2 345 13.2
2005-03-09 08:43:38 51°23.566 3°2.349 350.8 12 344 13.2
2005-03-09 08:43:43 51°23.582 3°2.342 350.2 12 344 13.1
2005-03-09 08:43:49 51°23.601 3°2.334 350.5 12 345 13.3
2005-03-09 08:43:54 51°23.615 3°2.327 350.4 12.1 344 13.4
2005-03-09 08:43:59 51°23.632 3°2.319 350.2 12.2 344 13.5
2005-03-09 08:44:04 51°23.649 3°2.312 350.5 12.1 344 13.7
2005-03-09 08:44:09 51°23.666 3°2.304 350.4 12.1 346 13.7
2005-03-09 08:44:14 51°23.682 3°2.298 351.2 12.2 346 14
2005-03-09 08:44:19 51°23.7 3°2.291 351.8 12.2 347 14.1
2005-03-09 08:44:24 51°23.714 3°2.286 352.6 12.4 347 14.4
2005-03-09 08:44:29 51°23.73 3°2.282 353.6 11.9 348 14.2
2005-03-09 08:44:34 51°23.746 3°2.279 355.6 11.8 352 14.3
2005-03-09 08:44:39 51°23.764 3°2.275 356.6 11.8 352 14.6
2005-03-09 08:44:44 51°23.779 3°2.273 358.6 12.1 355 14.7
2005-03-09 08:44:49 51°23.797 3°2.271 359.9 11.9 356 14.5
2005-03-09 08:44:54 51°23.814 3°2.269 0.8 11.9 356 14.8
2005-03-09 08:44:58 51°23.828 3°2.269 1.4 11.9 357 15
2005-03-09 08:45:04 51°23.846 3°2.267 1.6 11.9 357 15.1
2005-03-09 08:45:10 51°23.866 3°2.265 1.8 12.2 357 15.3
2005-03-09 08:45:14 51°23.881 3°2.264 2.1 12.2 357 15.4
2005-03-09 08:45:19 51°23.897 3°2.263 2.1 12.1 358 15.4
2005-03-09 08:45:24 51°23.913 3°2.262 2.1 12.2 358 15.7
2005-03-09 08:45:29 51°23.932 3°2.262 3.5 12.3 2 15.7
2005-03-09 08:45:34 51°23.948 3°2.263 5.2 12.2 1 15.7
2005-03-09 08:45:38 51°23.962 3°2.265 6.8 12.2 3 15.9
2005-03-09 08:45:43 51°23.979 3°2.266 7.8 12.2 3 15.9
2005-03-09 08:45:49 51°23.999 3°2.269 8.7 12.2 3 15.9
2005-03-09 08:45:54 51°24.013 3°2.272 9.6 12.2 3 15.6
2005-03-09 08:45:59 51°24.03 3°2.278 12.3 11.7 10 16
2005-03-09 08:46:04 51°24.047 3°2.283 13.8 11.9 10 16
2005-03-09 08:46:08 51°24.061 3°2.289 15.5 12 14 15.8
2005-03-09 08:46:14 51°24.079 3°2.299 18.1 11.9 17 16.1
2005-03-09 08:46:19 51°24.094 3°2.306 20.1 12.1 17 16
2005-03-09 08:46:24 51°24.11 3°2.316 21.6 12.2 20 15.7
2005-03-09 08:46:28 51°24.122 3°2.324 23.2 11.9 21 16.1
2005-03-09 08:46:34 51°24.141 3°2.337 23.8 11.7 24 16
2005-03-09 08:46:39 51°24.157 3°2.348 25.5 11.6 24 15.9
2005-03-09 08:46:44 51°24.17 3°2.357 25.8 11.7 23 16
2005-03-09 08:46:49 51°24.187 3°2.37 26 12 25 15.8
2005-03-09 08:46:54 51°24.202 3°2.38 27.3 12 25 16
2005-03-09 08:46:58 51°24.215 3°2.389 26.6 12 25 16.5
2005-03-09 08:47:04 51°24.231 3°2.401 26.5 12.1 27 16.7
2005-03-09 08:47:09 51°24.247 3°2.417 27.7 12.2 31 16.8
2005-03-09 08:47:14 51°24.259 3°2.433 34.5 12 36 16.8
2005-03-09 08:47:18 51°24.27 3°2.446 38.1 12.1 38 16.9
2005-03-09 08:47:24 51°24.284 3°2.466 40.5 12.1 38 17.1
2005-03-09 08:47:30 51°24.298 3°2.487 42.7 12.1 40 16.9
2005-03-09 08:47:34 51°24.308 3°2.502 43.3 12.2 42 16.9
2005-03-09 08:47:39 51°24.323 3°2.522 45.2 12 43 17
2005-03-09 08:47:44 51°24.333 3°2.541 45 12.3 45 17.1
2005-03-09 08:47:47 51°24.341 3°2.554 48 12.4 48 17
2005-03-09 08:47:54 51°24.358 3°2.583 49.3 12.4 48 17.4
2005-03-09 08:47:59 51°24.37 3°2.603 49.7 12.6 46 17.6
2005-03-09 08:48:04 51°24.379 3°2.621 50.7 12.3 48 17.6
2005-03-09 08:48:09 51°24.391 3°2.646 52.2 12.3 48 17.8
2005-03-09 08:48:14 51°24.402 3°2.668 53.7 12.3 48 17.9
2005-03-09 08:48:19 51°24.413 3°2.691 53.8 12.6 52 18
2005-03-09 08:48:24 51°24.423 3°2.71 54.8 12.8 52 18.4
2005-03-09 08:48:29 51°24.433 3°2.732 53.7 12.7 52 18.5
2005-03-09 08:48:34 51°24.444 3°2.754 53 12.6 51 18.7
2005-03-09 08:48:38 51°24.453 3°2.775 52.9 12.6 51 18.8
2005-03-09 08:48:44 51°24.465 3°2.799 54.3 12.6 52 18.9
2005-03-09 08:48:49 51°24.477 3°2.824 53.4 12.6 52 18.9
2005-03-09 08:48:54 51°24.488 3°2.844 54 12.7 52 19.2
2005-03-09 08:48:59 51°24.498 3°2.867 51.7 12.5 50 18.9
2005-03-09 08:49:04 51°24.51 3°2.888 53.7 12.5 50 19.4
2005-03-09 08:49:08 51°24.517 3°2.904 52 12.4 53 19.4
2005-03-09 08:49:14 51°24.531 3°2.932 53.3 12.4 53 19.3
2005-03-09 08:49:18 51°24.54 3°2.949 53.1 12.6 50 19.7
2005-03-09 08:49:24 51°24.552 3°2.973 53.7 12.6 54 19.7
2005-03-09 08:49:29 51°24.564 3°2.998 53.2 12.6 51 19.3
2005-03-09 08:49:34 51°24.574 3°3.02 53.4 12.6 51 19.5
2005-03-09 08:49:38 51°24.583 3°3.038 53.7 12.8 52 19.3
2005-03-09 08:49:44 51°24.595 3°3.063 53.9 12.7 53 19.4
2005-03-09 08:49:48 51°24.603 3°3.084 55.8 12.9 59 19.4